Time;durP1;ratioP1;P1;durP2;ratioP2;P2;SDS_P1;SDS_P2;PMS_P1;PMS_P2;Temp;Humidity;BMP_temperature;BMP_pressure;BME280_temperature;BME280_humidity;BME280_pressure;Samples;Min_cycle;Max_cycle;Signal;HPM_P1;HPM_P2
2023/10/04 00:03:22;;;;;;;6.47;5.82;;;;;;;;;;10311553;28;21345;-71
2023/10/04 00:08:18;;;;;;;11.57;5.78;;;;;;;;;;10317603;28;20496;-71
2023/10/04 00:13:15;;;;;;;8.63;6.05;;;;;;;;;;10307887;28;20708;-71
2023/10/04 00:18:11;;;;;;;11.80;6.40;;;;;;;;;;10302359;28;20110;-71
2023/10/04 00:23:08;;;;;;;8.23;5.90;;;;;;;;;;10311219;28;20049;-72
2023/10/04 00:28:04;;;;;;;9.00;5.57;;;;;;;;;;10294457;28;20044;-72
2023/10/04 00:33:06;;;;;;;7.25;5.28;;;;;;;;;;10315835;28;20049;-72
2023/10/04 00:38:02;;;;;;;10.27;5.35;;;;;;;;;;10321307;28;20048;-71
2023/10/04 00:43:01;;;;;;;7.88;5.70;;;;;;;;;;10309642;28;20679;-72
2023/10/04 00:47:57;;;;;;;16.30;6.28;;;;;;;;;;10293608;28;20056;-71
2023/10/04 00:53:01;;;;;;;9.93;5.97;;;;;;;;;;10296035;28;20131;-71
2023/10/04 00:57:59;;;;;;;10.50;5.60;;;;;;;;;;10312619;28;20048;-70
2023/10/04 01:02:56;;;;;;;7.20;5.30;;;;;;;;;;10315210;28;20064;-71
2023/10/04 01:07:53;;;;;;;12.52;5.88;;;;;;;;;;10308372;28;20566;-71
2023/10/04 01:12:51;;;;;;;7.93;5.55;;;;;;;;;;10313381;28;20102;-72
2023/10/04 01:17:48;;;;;;;8.57;5.43;;;;;;;;;;10321810;28;20060;-72
2023/10/04 01:22:44;;;;;;;7.38;5.47;;;;;;;;;;10306048;28;20086;-71
2023/10/04 01:27:41;;;;;;;6.65;5.90;;;;;;;;;;10313414;28;20055;-72
2023/10/04 01:32:38;;;;;;;12.95;5.70;;;;;;;;;;10319424;28;20049;-71
2023/10/04 01:37:38;;;;;;;8.52;6.10;;;;;;;;;;10320744;28;20048;-71
2023/10/04 01:42:34;;;;;;;11.48;5.93;;;;;;;;;;10305616;28;20111;-72
2023/10/04 01:47:30;;;;;;;12.98;5.30;;;;;;;;;;10311598;28;20122;-72
2023/10/04 01:52:27;;;;;;;13.88;5.75;;;;;;;;;;10305281;28;20111;-71
2023/10/04 01:57:23;;;;;;;9.63;5.40;;;;;;;;;;10308366;28;20074;-71
2023/10/04 02:02:22;;;;;;;7.63;5.55;;;;;;;;;;10310852;28;20439;-71
2023/10/04 02:07:22;;;;;;;12.98;6.50;;;;;;;;;;10316923;28;20131;-71
2023/10/04 02:12:18;;;;;;;8.70;5.85;;;;;;;;;;10308311;28;20072;-71
2023/10/04 02:17:18;;;;;;;7.63;6.22;;;;;;;;;;10312056;28;20496;-71
2023/10/04 02:22:15;;;;;;;7.18;5.82;;;;;;;;;;10311639;28;20055;-71
2023/10/04 02:27:11;;;;;;;7.53;6.00;;;;;;;;;;10304753;28;20067;-71
2023/10/04 02:32:09;;;;;;;9.18;6.18;;;;;;;;;;10310052;28;20048;-71
2023/10/04 02:37:06;;;;;;;8.73;5.75;;;;;;;;;;10309729;28;20130;-71
2023/10/04 02:42:11;;;;;;;8.40;5.90;;;;;;;;;;10304929;28;20446;-72
2023/10/04 02:47:08;;;;;;;11.52;6.53;;;;;;;;;;10299309;28;20068;-71
2023/10/04 02:52:07;;;;;;;11.27;6.30;;;;;;;;;;10302632;28;20076;-71
2023/10/04 02:57:03;;;;;;;11.30;6.60;;;;;;;;;;10308050;28;20101;-71
2023/10/04 03:02:00;;;;;;;8.50;6.28;;;;;;;;;;10305485;28;20052;-71
2023/10/04 03:06:57;;;;;;;7.80;6.22;;;;;;;;;;10314458;28;20512;-71
2023/10/04 03:11:53;;;;;;;10.00;5.90;;;;;;;;;;10311056;28;20717;-71
2023/10/04 03:16:49;;;;;;;11.55;6.38;;;;;;;;;;10307697;28;20049;-71
2023/10/04 03:21:46;;;;;;;11.10;6.50;;;;;;;;;;10305461;28;20056;-71
2023/10/04 03:26:44;;;;;;;14.43;6.97;;;;;;;;;;10292812;28;20063;-71
2023/10/04 03:31:40;;;;;;;13.77;7.10;;;;;;;;;;10309073;28;20049;-71
2023/10/04 03:36:39;;;;;;;10.73;6.60;;;;;;;;;;10310170;28;20052;-71
2023/10/04 03:41:36;;;;;;;9.82;6.72;;;;;;;;;;10307935;28;20781;-71
2023/10/04 03:46:33;;;;;;;8.40;6.82;;;;;;;;;;10315527;28;20056;-71
2023/10/04 03:51:29;;;;;;;9.18;6.97;;;;;;;;;;10286864;28;20135;-71
2023/10/04 03:56:25;;;;;;;9.48;7.03;;;;;;;;;;10309855;28;20055;-71
2023/10/04 04:01:25;;;;;;;12.82;7.35;;;;;;;;;;10298718;28;20049;-71
2023/10/04 04:06:23;;;;;;;10.80;7.75;;;;;;;;;;10310249;28;20044;-72
2023/10/04 04:11:20;;;;;;;13.63;7.15;;;;;;;;;;10307466;28;20106;-72
2023/10/04 04:16:19;;;;;;;8.48;7.57;;;;;;;;;;10314145;28;20052;-71
2023/10/04 04:21:16;;;;;;;10.32;7.82;;;;;;;;;;10311664;28;20045;-71
2023/10/04 04:26:13;;;;;;;10.90;7.50;;;;;;;;;;10316835;28;20106;-72
2023/10/04 04:31:19;;;;;;;11.57;7.60;;;;;;;;;;10316143;28;20470;-72
2023/10/04 04:36:26;;;;;;;11.20;8.15;;;;;;;;;;10314465;28;20044;-72
2023/10/04 04:41:25;;;;;;;15.77;8.07;;;;;;;;;;10305147;28;20095;-72
2023/10/04 04:46:23;;;;;;;9.77;7.47;;;;;;;;;;10296901;28;20500;-71
2023/10/04 04:51:19;;;;;;;10.23;7.43;;;;;;;;;;10321160;28;20171;-71
2023/10/04 04:56:16;;;;;;;13.20;7.47;;;;;;;;;;10315509;28;20052;-71
2023/10/04 05:01:12;;;;;;;9.35;7.97;;;;;;;;;;10314586;28;20094;-71
2023/10/04 05:06:13;;;;;;;10.98;7.25;;;;;;;;;;10306017;28;20080;-71
2023/10/04 05:11:10;;;;;;;14.57;7.90;;;;;;;;;;10308443;28;20047;-71
2023/10/04 05:16:07;;;;;;;16.23;8.18;;;;;;;;;;10312494;28;20471;-71
2023/10/04 05:21:04;;;;;;;10.70;8.15;;;;;;;;;;10313552;28;20083;-71
2023/10/04 05:26:00;;;;;;;15.00;8.75;;;;;;;;;;10310633;28;20048;-72
2023/10/04 05:30:57;;;;;;;10.07;7.95;;;;;;;;;;10313215;28;20070;-72
2023/10/04 05:35:55;;;;;;;11.63;8.73;;;;;;;;;;10313741;28;20080;-72
2023/10/04 05:40:51;;;;;;;13.15;8.00;;;;;;;;;;10309520;28;20073;-72
2023/10/04 05:45:48;;;;;;;14.73;8.25;;;;;;;;;;10308918;28;20114;-72
2023/10/04 05:50:45;;;;;;;11.98;8.25;;;;;;;;;;10312480;28;20527;-71
2023/10/04 05:55:42;;;;;;;14.05;8.40;;;;;;;;;;10310894;28;20048;-72
2023/10/04 06:00:42;;;;;;;12.50;8.32;;;;;;;;;;10312065;28;20467;-72
2023/10/04 06:05:39;;;;;;;9.80;7.57;;;;;;;;;;10306940;28;20050;-72
2023/10/04 06:10:36;;;;;;;17.67;8.13;;;;;;;;;;10296797;28;20471;-71
2023/10/04 06:15:32;;;;;;;10.98;8.13;;;;;;;;;;10309628;28;20136;-72
2023/10/04 06:20:32;;;;;;;10.43;8.00;;;;;;;;;;10311881;28;20074;-72
2023/10/04 06:25:29;;;;;;;13.13;8.23;;;;;;;;;;10307744;28;20083;-72
2023/10/04 06:30:27;;;;;;;16.88;7.78;;;;;;;;;;10309982;28;20063;-72
2023/10/04 06:35:24;;;;;;;17.95;9.07;;;;;;;;;;10310845;28;20113;-72
2023/10/04 06:40:21;;;;;;;12.63;7.90;;;;;;;;;;10302934;28;20106;-72
2023/10/04 06:45:18;;;;;;;10.27;7.72;;;;;;;;;;10310729;28;20049;-72
2023/10/04 06:50:16;;;;;;;9.85;7.95;;;;;;;;;;10293712;28;20044;-72
2023/10/04 06:55:13;;;;;;;11.50;7.90;;;;;;;;;;10305261;28;20716;-72
2023/10/04 07:00:14;;;;;;;15.57;8.32;;;;;;;;;;10310652;28;20052;-72
2023/10/04 07:05:13;;;;;;;12.60;7.53;;;;;;;;;;10304230;28;20148;-72
2023/10/04 07:10:09;;;;;;;14.00;7.80;;;;;;;;;;10309119;28;20041;-72
2023/10/04 07:15:06;;;;;;;14.68;7.72;;;;;;;;;;10309130;28;20048;-72
2023/10/04 07:20:06;;;;;;;11.80;7.40;;;;;;;;;;10310325;28;20048;-72
2023/10/04 07:25:03;;;;;;;9.25;6.85;;;;;;;;;;10307766;28;20045;-72
2023/10/04 07:29:59;;;;;;;15.75;7.57;;;;;;;;;;10293946;28;20045;-72
2023/10/04 07:34:56;;;;;;;13.30;7.22;;;;;;;;;;10318192;28;20063;-72
2023/10/04 07:39:53;;;;;;;9.65;7.40;;;;;;;;;;10295099;28;20516;-71
2023/10/04 07:44:49;;;;;;;14.00;7.07;;;;;;;;;;10313444;28;20041;-71
2023/10/04 07:49:57;;;;;;;15.45;6.90;;;;;;;;;;10425018;22;20440;-71
2023/10/04 07:55:25;;;;;;;13.40;7.18;;;;;;;;;;10253985;28;21064;-72
2023/10/04 08:00:22;;;;;;;11.32;6.85;;;;;;;;;;10291807;28;20056;-72
2023/10/04 08:05:20;;;;;;;8.68;7.00;;;;;;;;;;10313303;28;20106;-72
2023/10/04 08:10:16;;;;;;;16.83;6.80;;;;;;;;;;10306986;28;20398;-72
2023/10/04 08:15:19;;;;;;;15.20;7.00;;;;;;;;;;10303331;28;20069;-72
2023/10/04 08:20:32;;;;;;;14.02;7.20;;;;;;;;;;10315828;22;20440;-72
2023/10/04 08:25:44;;;;;;;11.00;6.80;;;;;;;;;;10290074;28;20417;-72
2023/10/04 08:30:40;;;;;;;11.27;6.93;;;;;;;;;;10304427;28;20075;-72
2023/10/04 08:35:37;;;;;;;13.25;7.22;;;;;;;;;;10306447;28;20071;-72
2023/10/04 08:40:41;;;;;;;15.48;6.28;;;;;;;;;;10306764;28;20052;-71
2023/10/04 08:45:37;;;;;;;10.68;5.85;;;;;;;;;;10301391;28;20102;-72
2023/10/04 08:50:37;;;;;;;13.00;6.32;;;;;;;;;;10308243;28;20052;-72
2023/10/04 08:55:37;;;;;;;12.23;6.85;;;;;;;;;;10289699;28;20132;-72
2023/10/04 09:00:34;;;;;;;12.93;6.22;;;;;;;;;;10287911;28;20111;-72
2023/10/04 09:05:31;;;;;;;9.23;5.97;;;;;;;;;;10304327;28;20528;-72
2023/10/04 09:10:29;;;;;;;10.77;6.35;;;;;;;;;;10333685;22;20044;-72
2023/10/04 09:15:26;;;;;;;17.33;6.45;;;;;;;;;;10362384;28;20543;-72
2023/10/04 09:20:24;;;;;;;13.95;6.80;;;;;;;;;;10353949;28;20495;-72
2023/10/04 09:25:20;;;;;;;17.05;6.85;;;;;;;;;;10360673;28;20048;-72
2023/10/04 09:30:21;;;;;;;11.20;5.80;;;;;;;;;;10368499;22;20533;-72
2023/10/04 09:35:18;;;;;;;11.50;6.05;;;;;;;;;;10337353;28;20068;-72
2023/10/04 09:40:17;;;;;;;12.30;6.10;;;;;;;;;;10336481;28;20488;-72
2023/10/04 09:45:14;;;;;;;13.35;5.93;;;;;;;;;;10326150;28;20052;-72
2023/10/04 09:50:12;;;;;;;9.18;5.97;;;;;;;;;;10319727;23;20063;-72
2023/10/04 09:55:08;;;;;;;15.43;6.28;;;;;;;;;;10304427;28;20059;-72
2023/10/04 10:00:23;;;;;;;11.05;5.40;;;;;;;;;;10349750;22;20419;-73
2023/10/04 10:05:26;;;;;;;13.95;5.97;;;;;;;;;;10327891;28;20040;-72
2023/10/04 10:10:26;;;;;;;12.57;6.25;;;;;;;;;;10321596;22;20071;-73
2023/10/04 10:15:22;;;;;;;11.38;5.63;;;;;;;;;;10312155;28;20523;-72
2023/10/04 10:20:19;;;;;;;12.02;5.97;;;;;;;;;;10283531;28;20056;-72
2023/10/04 10:25:16;;;;;;;9.75;6.00;;;;;;;;;;10287005;28;20548;-72
2023/10/04 10:30:16;;;;;;;11.90;6.22;;;;;;;;;;10473648;22;20056;-72
2023/10/04 10:35:13;;;;;;;13.02;5.55;;;;;;;;;;10345123;28;20041;-72
2023/10/04 10:40:28;;;;;;;13.07;5.97;;;;;;;;;;10323062;28;20052;-72
2023/10/04 10:45:28;;;;;;;15.32;6.43;;;;;;;;;;10299206;28;20114;-72
2023/10/04 10:50:31;;;;;;;13.23;6.43;;;;;;;;;;10310926;28;20119;-72
2023/10/04 10:55:28;;;;;;;18.67;6.30;;;;;;;;;;10301316;28;20049;-72
2023/10/04 11:00:26;;;;;;;10.98;6.07;;;;;;;;;;10308476;28;20056;-72
2023/10/04 11:05:22;;;;;;;19.02;6.55;;;;;;;;;;10306670;28;20599;-70
2023/10/04 11:10:23;;;;;;;14.10;6.13;;;;;;;;;;10316852;28;20044;-72
2023/10/04 11:15:20;;;;;;;10.45;6.70;;;;;;;;;;10314025;28;20056;-72
2023/10/04 11:20:17;;;;;;;11.73;6.60;;;;;;;;;;10317940;28;20045;-72
2023/10/04 11:25:15;;;;;;;15.15;6.70;;;;;;;;;;10310823;28;20053;-71
2023/10/04 11:30:23;;;;;;;13.90;7.07;;;;;;;;;;10310585;28;20049;-72
2023/10/04 11:35:20;;;;;;;14.60;7.15;;;;;;;;;;10310478;28;20079;-71
2023/10/04 11:40:19;;;;;;;17.52;7.13;;;;;;;;;;10291898;28;20520;-71
2023/10/04 11:45:19;;;;;;;14.43;7.30;;;;;;;;;;10312035;28;20054;-72
2023/10/04 11:50:15;;;;;;;11.02;6.55;;;;;;;;;;10311480;28;20040;-71
2023/10/04 11:55:37;;;;;;;14.38;7.40;;;;;;;;;;10307196;28;20044;-72
2023/10/04 12:00:33;;;;;;;14.35;7.35;;;;;;;;;;10294360;28;20079;-71
2023/10/04 12:05:29;;;;;;;15.40;7.80;;;;;;;;;;10299353;28;20045;-72
2023/10/04 12:10:26;;;;;;;14.90;7.32;;;;;;;;;;10307666;28;20062;-72
2023/10/04 12:15:22;;;;;;;12.93;7.88;;;;;;;;;;10304542;28;20471;-71
2023/10/04 12:20:24;;;;;;;14.27;7.72;;;;;;;;;;10312938;28;20059;-71
2023/10/04 12:25:22;;;;;;;18.75;7.95;;;;;;;;;;10298742;28;20512;-72
2023/10/04 12:30:20;;;;;;;12.73;8.35;;;;;;;;;;10305907;28;20129;-72
2023/10/04 12:35:16;;;;;;;13.13;8.80;;;;;;;;;;10319441;28;20084;-71
2023/10/04 12:40:23;;;;;;;15.77;8.02;;;;;;;;;;10311342;28;20511;-72
2023/10/04 12:45:20;;;;;;;15.02;8.82;;;;;;;;;;10313504;28;20102;-71
2023/10/04 12:50:16;;;;;;;15.00;8.20;;;;;;;;;;10291664;28;20524;-71
2023/10/04 12:55:13;;;;;;;11.98;8.32;;;;;;;;;;10300694;28;20080;-71
2023/10/04 13:00:15;;;;;;;11.40;7.60;;;;;;;;;;10301214;28;20053;-71
2023/10/04 13:05:14;;;;;;;10.82;7.72;;;;;;;;;;10298500;28;20133;-72
2023/10/04 13:10:11;;;;;;;11.23;7.53;;;;;;;;;;10297754;28;20048;-71
2023/10/04 13:15:12;;;;;;;12.48;8.40;;;;;;;;;;10309250;28;20048;-71
2023/10/04 13:20:10;;;;;;;10.43;7.88;;;;;;;;;;10308845;28;20486;-72
2023/10/04 13:25:07;;;;;;;11.98;7.88;;;;;;;;;;10308163;28;20067;-72
2023/10/04 13:30:05;;;;;;;13.15;8.13;;;;;;;;;;10307166;28;20048;-72
2023/10/04 13:35:02;;;;;;;13.27;8.40;;;;;;;;;;10309662;28;20056;-72
2023/10/04 13:39:58;;;;;;;13.65;8.30;;;;;;;;;;10314238;28;20099;-71
2023/10/04 13:44:57;;;;;;;12.00;8.90;;;;;;;;;;10306230;28;20500;-72
2023/10/04 13:49:53;;;;;;;14.23;7.57;;;;;;;;;;10310183;28;20437;-71
2023/10/04 13:54:51;;;;;;;11.07;7.82;;;;;;;;;;10304146;28;20048;-71
2023/10/04 13:59:53;;;;;;;14.85;9.10;;;;;;;;;;10296839;28;20069;-71
2023/10/04 14:04:49;;;;;;;10.32;7.85;;;;;;;;;;10297713;28;20053;-70
2023/10/04 14:09:45;;;;;;;11.48;8.23;;;;;;;;;;10308942;28;20041;-72
2023/10/04 14:14:42;;;;;;;12.68;8.15;;;;;;;;;;10302094;28;20551;-71
2023/10/04 14:19:40;;;;;;;11.05;7.35;;;;;;;;;;10302527;28;20052;-72
2023/10/04 14:24:37;;;;;;;11.82;7.80;;;;;;;;;;10292604;28;20508;-71
2023/10/04 14:29:33;;;;;;;14.07;7.68;;;;;;;;;;10308502;28;20098;-71
2023/10/04 14:34:30;;;;;;;15.00;7.85;;;;;;;;;;10301070;28;20716;-70
2023/10/04 14:39:26;;;;;;;15.00;7.22;;;;;;;;;;10308658;28;20045;-71
2023/10/04 14:44:23;;;;;;;14.05;7.57;;;;;;;;;;10305583;28;20037;-71
2023/10/04 14:49:20;;;;;;;13.35;7.68;;;;;;;;;;10296617;28;20077;-71
2023/10/04 14:54:16;;;;;;;12.73;7.63;;;;;;;;;;10296812;28;20072;-71
2023/10/04 14:59:12;;;;;;;11.80;7.95;;;;;;;;;;10307090;28;20048;-71
2023/10/04 15:04:09;;;;;;;12.95;7.85;;;;;;;;;;10304164;28;20056;-71
2023/10/04 15:09:10;;;;;;;13.68;7.88;;;;;;;;;;10300054;28;20044;-71
2023/10/04 15:14:06;;;;;;;11.73;8.73;;;;;;;;;;10300239;28;20053;-71
2023/10/04 15:19:02;;;;;;;12.25;8.10;;;;;;;;;;10302738;28;20044;-71
2023/10/04 15:24:02;;;;;;;17.23;7.75;;;;;;;;;;10304676;28;20415;-71
2023/10/04 15:29:02;;;;;;;12.20;7.95;;;;;;;;;;10286546;28;20048;-71
2023/10/04 15:33:59;;;;;;;11.38;7.72;;;;;;;;;;10295491;28;20049;-71
2023/10/04 15:38:55;;;;;;;10.05;7.47;;;;;;;;;;10310001;28;20052;-71
2023/10/04 15:43:52;;;;;;;11.23;7.82;;;;;;;;;;10304678;28;20076;-71
2023/10/04 15:48:49;;;;;;;16.60;9.00;;;;;;;;;;10312169;28;20437;-72
2023/10/04 15:53:45;;;;;;;17.27;8.30;;;;;;;;;;10304257;28;20543;-71
2023/10/04 15:58:42;;;;;;;15.48;8.68;;;;;;;;;;10307099;28;20053;-71
2023/10/04 16:03:38;;;;;;;10.32;7.63;;;;;;;;;;10304885;28;20060;-70
2023/10/04 16:08:35;;;;;;;15.90;8.95;;;;;;;;;;10306486;28;20060;-71
2023/10/04 16:13:32;;;;;;;13.85;7.90;;;;;;;;;;10312051;28;20124;-71
2023/10/04 16:18:29;;;;;;;13.43;8.18;;;;;;;;;;10306621;28;20056;-71
2023/10/04 16:23:28;;;;;;;14.55;8.60;;;;;;;;;;10312454;28;20559;-71
2023/10/04 16:28:25;;;;;;;17.58;9.77;;;;;;;;;;10309571;28;20036;-72
2023/10/04 16:33:21;;;;;;;15.27;8.70;;;;;;;;;;10314888;28;20558;-73
2023/10/04 16:38:17;;;;;;;13.80;8.32;;;;;;;;;;10306447;28;20069;-71
2023/10/04 16:43:14;;;;;;;13.20;8.13;;;;;;;;;;10309019;28;20068;-71
2023/10/04 16:48:10;;;;;;;14.35;8.68;;;;;;;;;;10304786;28;20500;-71
2023/10/04 16:53:07;;;;;;;13.00;8.77;;;;;;;;;;10303199;28;20122;-71
2023/10/04 16:58:03;;;;;;;17.52;9.35;;;;;;;;;;10306224;28;20531;-71
2023/10/04 17:03:00;;;;;;;14.30;9.45;;;;;;;;;;10282546;28;20115;-71
2023/10/04 17:07:56;;;;;;;16.05;9.77;;;;;;;;;;10307630;28;20045;-71
2023/10/04 17:12:53;;;;;;;13.63;8.65;;;;;;;;;;10311406;28;20059;-71
2023/10/04 17:17:50;;;;;;;11.55;8.52;;;;;;;;;;10305654;28;20083;-70
2023/10/04 17:22:46;;;;;;;18.33;9.25;;;;;;;;;;10307314;28;20139;-71
2023/10/04 17:27:43;;;;;;;10.70;8.75;;;;;;;;;;10307764;28;20567;-71
2023/10/04 17:32:39;;;;;;;15.75;8.77;;;;;;;;;;10305267;28;20102;-71
2023/10/04 17:37:36;;;;;;;16.30;8.40;;;;;;;;;;10307040;28;20094;-71
2023/10/04 17:42:32;;;;;;;19.33;9.20;;;;;;;;;;10309657;28;20060;-71
2023/10/04 17:47:29;;;;;;;19.70;9.82;;;;;;;;;;10306813;28;20430;-71
2023/10/04 17:52:26;;;;;;;14.50;8.77;;;;;;;;;;10298145;28;20051;-71
2023/10/04 17:57:23;;;;;;;16.65;8.88;;;;;;;;;;10296082;28;20049;-71
2023/10/04 18:02:19;;;;;;;17.13;9.10;;;;;;;;;;10299696;28;20044;-71
2023/10/04 18:07:16;;;;;;;11.07;7.80;;;;;;;;;;10299485;28;20076;-71
2023/10/04 18:12:12;;;;;;;19.00;8.70;;;;;;;;;;10297328;28;20040;-71
2023/10/04 18:17:08;;;;;;;13.13;7.80;;;;;;;;;;10295712;28;20049;-71
2023/10/04 18:22:05;;;;;;;12.85;7.95;;;;;;;;;;10308951;28;20055;-71
2023/10/04 18:27:01;;;;;;;11.77;7.70;;;;;;;;;;10310747;28;20144;-71
2023/10/04 18:31:59;;;;;;;10.95;7.95;;;;;;;;;;10308695;28;20103;-71
2023/10/04 18:36:56;;;;;;;13.02;8.20;;;;;;;;;;10309247;28;20064;-71
2023/10/04 18:41:52;;;;;;;13.75;7.95;;;;;;;;;;10310723;28;20074;-71
2023/10/04 18:46:52;;;;;;;18.15;8.85;;;;;;;;;;10296536;28;20053;-71
2023/10/04 18:51:48;;;;;;;13.05;8.43;;;;;;;;;;10294989;28;20053;-71
2023/10/04 18:56:45;;;;;;;17.98;8.80;;;;;;;;;;10299697;28;20037;-71
2023/10/04 19:01:41;;;;;;;15.57;9.20;;;;;;;;;;10309631;28;20515;-71
2023/10/04 19:06:37;;;;;;;13.98;8.60;;;;;;;;;;10298818;28;20056;-71
2023/10/04 19:11:35;;;;;;;16.48;9.30;;;;;;;;;;10300789;28;20398;-71
2023/10/04 19:16:31;;;;;;;16.38;8.70;;;;;;;;;;10300738;28;20426;-71
2023/10/04 19:21:28;;;;;;;13.85;8.77;;;;;;;;;;10297036;28;20054;-71
2023/10/04 19:26:24;;;;;;;13.48;9.60;;;;;;;;;;10307645;28;20522;-71
2023/10/04 19:31:21;;;;;;;15.23;9.73;;;;;;;;;;10306438;28;20075;-71
2023/10/04 19:36:20;;;;;;;12.75;9.15;;;;;;;;;;10324962;28;20641;-71
2023/10/04 19:41:17;;;;;;;12.50;8.35;;;;;;;;;;10314703;28;20040;-71
2023/10/04 19:46:14;;;;;;;10.98;9.05;;;;;;;;;;10309072;28;20052;-71
2023/10/04 19:51:10;;;;;;;18.38;8.77;;;;;;;;;;10310278;28;20059;-71
2023/10/04 19:56:07;;;;;;;12.88;9.07;;;;;;;;;;10311098;28;20056;-71
2023/10/04 20:01:03;;;;;;;16.92;9.32;;;;;;;;;;10309716;28;20051;-71
2023/10/04 20:06:01;;;;;;;13.38;9.57;;;;;;;;;;10302338;28;20059;-71
2023/10/04 20:10:58;;;;;;;13.20;8.88;;;;;;;;;;10318190;28;20044;-71
2023/10/04 20:15:54;;;;;;;15.43;9.65;;;;;;;;;;10312237;28;20305;-71
2023/10/04 20:20:51;;;;;;;15.27;8.98;;;;;;;;;;10315649;28;20523;-70
2023/10/04 20:25:47;;;;;;;12.82;8.70;;;;;;;;;;10309594;28;20044;-70
2023/10/04 20:30:45;;;;;;;13.50;9.18;;;;;;;;;;10310100;28;20059;-71
2023/10/04 20:35:41;;;;;;;16.30;8.90;;;;;;;;;;10315317;28;20055;-71
2023/10/04 20:40:39;;;;;;;15.27;8.65;;;;;;;;;;10311888;28;20053;-71
2023/10/04 20:45:36;;;;;;;15.45;8.50;;;;;;;;;;10327287;28;20052;-71
2023/10/04 20:50:32;;;;;;;16.75;9.43;;;;;;;;;;10308168;28;20427;-71
2023/10/04 20:55:29;;;;;;;14.80;8.40;;;;;;;;;;10306670;28;20049;-71
2023/10/04 21:00:25;;;;;;;14.15;8.93;;;;;;;;;;10304823;28;20068;-71
2023/10/04 21:05:22;;;;;;;17.65;9.18;;;;;;;;;;10290972;28;20052;-71
2023/10/04 21:10:18;;;;;;;13.55;8.07;;;;;;;;;;10302673;28;20065;-71
2023/10/04 21:15:20;;;;;;;14.90;9.15;;;;;;;;;;10307009;28;20767;-71
2023/10/04 21:20:19;;;;;;;16.10;9.05;;;;;;;;;;10308853;28;20040;-71
2023/10/04 21:25:16;;;;;;;11.73;8.02;;;;;;;;;;10308516;28;20079;-71
2023/10/04 21:30:12;;;;;;;13.32;8.73;;;;;;;;;;10304218;28;20124;-71
2023/10/04 21:35:17;;;;;;;17.35;8.40;;;;;;;;;;10307380;28;20060;-71
2023/10/04 21:40:13;;;;;;;18.55;8.90;;;;;;;;;;10306012;28;20048;-71
2023/10/04 21:45:13;;;;;;;13.48;8.23;;;;;;;;;;10304186;28;20045;-71
2023/10/04 21:50:12;;;;;;;15.30;8.30;;;;;;;;;;10291965;28;20045;-71
2023/10/04 21:55:13;;;;;;;18.67;9.05;;;;;;;;;;10296972;28;20398;-71
2023/10/04 22:00:21;;;;;;;13.85;7.68;;;;;;;;;;10303422;28;20198;-71
2023/10/04 22:05:18;;;;;;;12.57;8.00;;;;;;;;;;10283185;28;20036;-71
2023/10/04 22:10:16;;;;;;;12.38;7.85;;;;;;;;;;10308893;28;20137;-71
2023/10/04 22:15:13;;;;;;;11.10;7.03;;;;;;;;;;10307634;28;20056;-71
2023/10/04 22:20:11;;;;;;;14.48;7.75;;;;;;;;;;10305198;28;20497;-71
2023/10/04 22:25:12;;;;;;;11.20;7.00;;;;;;;;;;10306105;28;20102;-71
2023/10/04 22:30:17;;;;;;;9.35;6.85;;;;;;;;;;10297004;28;20413;-71
2023/10/04 22:35:19;;;;;;;11.57;7.55;;;;;;;;;;10289808;28;20649;-71
2023/10/04 22:40:20;;;;;;;12.95;7.55;;;;;;;;;;10305445;28;20044;-71
2023/10/04 22:45:19;;;;;;;14.82;5.95;;;;;;;;;;10301913;28;20098;-71
2023/10/04 22:50:15;;;;;;;14.00;6.95;;;;;;;;;;10304018;28;20097;-71
2023/10/04 22:55:15;;;;;;;13.45;6.78;;;;;;;;;;10298830;28;20504;-71
2023/10/04 23:00:24;;;;;;;9.45;6.75;;;;;;;;;;10327200;22;20527;-71
2023/10/04 23:05:21;;;;;;;14.30;6.45;;;;;;;;;;10330466;28;20106;-71
2023/10/04 23:10:21;;;;;;;8.93;6.43;;;;;;;;;;10343623;28;20076;-71
2023/10/04 23:15:31;;;;;;;11.50;6.97;;;;;;;;;;10345953;28;20055;-71
2023/10/04 23:20:31;;;;;;;8.63;6.25;;;;;;;;;;10350717;28;20052;-71
2023/10/04 23:25:28;;;;;;;9.40;6.70;;;;;;;;;;10346105;28;20124;-71
2023/10/04 23:30:26;;;;;;;16.65;7.20;;;;;;;;;;10341238;28;20130;-71
2023/10/04 23:35:38;;;;;;;18.20;7.15;;;;;;;;;;10345570;28;20582;-71
2023/10/04 23:40:34;;;;;;;12.07;6.35;;;;;;;;;;10340324;28;20052;-71
2023/10/04 23:45:32;;;;;;;12.25;6.28;;;;;;;;;;10351117;28;20056;-71
2023/10/04 23:50:28;;;;;;;9.93;6.70;;;;;;;;;;10344970;28;20057;-71
2023/10/04 23:55:26;;;;;;;10.35;6.28;;;;;;;;;;10341339;28;20113;-71
